createdAt,value
2022-11-15T00:00:49.088Z,99.9
2022-11-15T00:05:49.081Z,99.9
2022-11-15T00:10:49.102Z,99.9
2022-11-15T00:15:49.077Z,99.9
2022-11-15T00:20:49.078Z,99.9
2022-11-15T00:25:49.086Z,99.9
2022-11-15T00:30:49.137Z,99.9
2022-11-15T00:35:49.074Z,99.9
2022-11-15T00:40:49.080Z,99.9
2022-11-15T00:45:49.093Z,99.9
2022-11-15T00:50:49.095Z,99.9
2022-11-15T00:55:49.073Z,99.9
2022-11-15T01:00:49.109Z,99.9
2022-11-15T01:05:49.074Z,99.9
2022-11-15T01:10:49.101Z,99.9
2022-11-15T01:15:49.064Z,99.9
2022-11-15T01:20:49.068Z,99.9
2022-11-15T01:25:49.072Z,99.9
2022-11-15T01:30:49.076Z,99.9
2022-11-15T01:35:49.054Z,99.9
2022-11-15T01:40:49.060Z,99.9
2022-11-15T01:45:49.051Z,99.9
2022-11-15T01:50:49.089Z,99.9
2022-11-15T01:55:49.044Z,99.9
2022-11-15T02:00:49.156Z,99.9
2022-11-15T02:05:49.057Z,99.9
2022-11-15T02:10:49.083Z,99.9
2022-11-15T02:15:49.088Z,99.9
2022-11-15T02:20:49.047Z,99.9
2022-11-15T02:25:49.042Z,99.9
2022-11-15T02:30:49.059Z,99.9
2022-11-15T02:35:49.063Z,99.9
2022-11-15T02:40:49.042Z,99.9
2022-11-15T02:45:49.034Z,99.9
2022-11-15T02:50:49.070Z,99.9
2022-11-15T02:55:49.038Z,99.9
2022-11-15T03:00:49.116Z,99.9
2022-11-15T03:05:49.033Z,99.9
2022-11-15T03:10:49.060Z,99.9
2022-11-15T03:15:49.036Z,99.9
2022-11-15T03:20:49.266Z,99.9
2022-11-15T03:25:49.031Z,99.9
2022-11-15T03:30:49.042Z,99.9
2022-11-15T03:35:49.033Z,99.9
2022-11-15T03:40:49.019Z,99.9
2022-11-15T03:45:49.109Z,99.9
2022-11-15T03:50:49.043Z,99.9
2022-11-15T03:55:49.026Z,99.9
2022-11-15T04:00:49.065Z,99.9
2022-11-15T04:05:49.024Z,99.9
2022-11-15T04:10:49.041Z,99.9
2022-11-15T04:15:49.017Z,99.9
2022-11-15T04:20:49.014Z,99.9
2022-11-15T04:25:49.165Z,99.9
2022-11-15T04:30:49.045Z,99.9
2022-11-15T04:35:49.029Z,99.9
2022-11-15T04:40:49.027Z,99.9
2022-11-15T04:45:49.014Z,99.9
2022-11-15T04:50:49.040Z,99.9
2022-11-15T04:55:49.012Z,99.9
2022-11-15T05:00:49.110Z,99.9
2022-11-15T05:05:49.012Z,99.9
2022-11-15T05:10:49.028Z,99.9
2022-11-15T05:15:49.016Z,99.9
2022-11-15T05:20:49.009Z,99.9
2022-11-15T05:25:49.024Z,99.9
2022-11-15T05:30:49.060Z,99.9
2022-11-15T05:35:49.003Z,99.9
2022-11-15T05:40:48.999Z,99.9
2022-11-15T05:45:49.016Z,99.9
2022-11-15T05:50:49.152Z,99.9
2022-11-15T05:55:49.002Z,99.9
2022-11-15T06:00:49.003Z,99.9
2022-11-15T06:05:48.995Z,99.9
2022-11-15T06:10:49.024Z,99.9
2022-11-15T06:15:49.007Z,99.9
2022-11-15T06:20:49.009Z,99.9
2022-11-15T06:25:48.989Z,99.9
2022-11-15T06:30:52.971Z,99.9
2022-11-15T06:35:48.995Z,99.9
2022-11-15T06:40:48.994Z,99.9
2022-11-15T06:45:48.994Z,99.9
2022-11-15T06:50:49.028Z,99.9
2022-11-15T06:55:53.476Z,99.9
2022-11-15T07:00:49.030Z,99.9
2022-11-15T07:05:48.978Z,99.9
2022-11-15T07:10:49.106Z,99.9
2022-11-15T07:15:48.978Z,99.9
2022-11-15T07:20:48.980Z,99.9
2022-11-15T07:25:48.979Z,99.9
2022-11-15T07:30:49.007Z,99.9
2022-11-15T07:35:48.976Z,99.9
2022-11-15T07:40:48.976Z,99.9
2022-11-15T07:45:48.986Z,99.9
2022-11-15T07:50:49.142Z,99.9
2022-11-15T07:55:48.972Z,99.9
2022-11-15T08:00:49.040Z,99.9
2022-11-15T08:05:48.988Z,99.9
2022-11-15T08:10:49.014Z,99.9
2022-11-15T08:15:52.203Z,99.9
2022-11-15T08:20:48.995Z,99.9
2022-11-15T08:25:48.995Z,99.9
2022-11-15T08:30:49.017Z,99.9
2022-11-15T08:35:48.982Z,99.9
2022-11-15T08:40:48.982Z,99.9
2022-11-15T08:45:48.976Z,99.9
2022-11-15T08:50:49.009Z,99.9
2022-11-15T08:55:48.986Z,99.9
2022-11-15T09:00:48.982Z,99.9
2022-11-15T09:05:48.982Z,99.9
2022-11-15T09:10:49.001Z,99.9
2022-11-15T09:15:48.974Z,99.9
2022-11-15T09:20:48.974Z,99.9
2022-11-15T09:25:48.983Z,99.9
2022-11-15T09:30:49.004Z,99.9
2022-11-15T09:35:48.978Z,99.9
2022-11-15T09:40:49.011Z,99.9
2022-11-15T09:45:48.972Z,99.9
2022-11-15T09:50:48.994Z,99.9
2022-11-15T09:55:48.970Z,99.9
2022-11-15T10:00:49.101Z,99.9
2022-11-15T10:05:49.074Z,99.9
2022-11-15T10:10:48.990Z,99.9
2022-11-15T10:15:48.955Z,99.9
2022-11-15T10:20:48.948Z,99.9
2022-11-15T10:25:48.973Z,99.9
2022-11-15T10:30:48.986Z,99.9
2022-11-15T10:35:48.969Z,99.9
2022-11-15T10:40:48.965Z,99.9
2022-11-15T10:45:48.992Z,99.9
2022-11-15T10:50:49.009Z,99.7
2022-11-15T10:55:48.961Z,99.9
2022-11-15T11:00:48.969Z,99.5
2022-11-15T11:05:48.959Z,99.5
2022-11-15T11:10:51.869Z,99.1
2022-11-15T11:15:48.943Z,98.1
2022-11-15T11:20:48.960Z,98.4
2022-11-15T11:25:48.985Z,97.3
2022-11-15T11:30:48.974Z,97.3
2022-11-15T11:35:48.942Z,97.3
2022-11-15T11:40:48.945Z,96.6
2022-11-15T11:45:48.938Z,96.9
2022-11-15T11:50:49.101Z,95.7
2022-11-15T11:55:48.991Z,95.7
2022-11-15T12:00:48.937Z,95.5
2022-11-15T12:05:48.941Z,94.6
2022-11-15T12:10:49.055Z,93.3
2022-11-15T12:15:48.932Z,92.1
2022-11-15T12:20:48.927Z,90.9
2022-11-15T12:25:48.986Z,90.9
2022-11-15T12:30:48.957Z,90.1
2022-11-15T12:35:48.937Z,89
2022-11-15T12:40:48.945Z,89.4
2022-11-15T12:45:48.935Z,84.3
2022-11-15T12:50:48.956Z,85
2022-11-15T12:55:48.910Z,81.9
2022-11-15T13:00:48.909Z,80.7
2022-11-15T13:05:48.905Z,78.8
2022-11-15T13:10:48.921Z,77.5
2022-11-15T13:15:48.896Z,77.3
2022-11-15T13:20:48.890Z,75.3
2022-11-15T13:25:48.912Z,74
2022-11-15T13:30:48.929Z,72.8
2022-11-15T13:35:48.888Z,71.9
2022-11-15T13:40:48.880Z,71.8
2022-11-15T13:45:48.885Z,72.9
2022-11-15T13:50:48.902Z,73
2022-11-15T13:55:49.125Z,73
2022-11-15T14:00:48.956Z,73.8
2022-11-15T14:05:49.099Z,74.2
2022-11-15T14:10:49.164Z,74.4
2022-11-15T14:15:49.085Z,74.4
2022-11-15T14:20:49.080Z,74.7
2022-11-15T14:25:49.083Z,75
2022-11-15T14:30:49.108Z,75.4
2022-11-15T14:35:49.091Z,75.8
2022-11-15T14:40:49.087Z,76.2
2022-11-15T14:45:49.087Z,76.4
2022-11-15T14:50:49.131Z,76.8
2022-11-15T14:55:49.146Z,77.2
2022-11-15T15:00:49.253Z,77.7
2022-11-15T15:05:49.374Z,78.2
2022-11-15T15:10:49.378Z,78.8
2022-11-15T15:15:49.610Z,79.3
2022-11-15T15:20:49.529Z,80
2022-11-15T15:25:49.510Z,80.7
2022-11-15T15:30:49.564Z,81.2
2022-11-15T15:35:49.521Z,82
2022-11-15T15:40:51.475Z,82.5
2022-11-15T15:45:49.512Z,83.1
2022-11-15T15:50:49.529Z,83.8
2022-11-15T15:55:49.514Z,84.3
2022-11-15T16:00:49.582Z,84.8
2022-11-15T16:05:49.625Z,85.5
2022-11-15T16:10:49.568Z,86.1
2022-11-15T16:15:49.544Z,86.8
2022-11-15T16:20:49.527Z,87.2
2022-11-15T16:25:49.617Z,87.4
2022-11-15T16:30:53.810Z,87.6
2022-11-15T16:35:49.623Z,87.6
2022-11-15T16:40:49.618Z,87.8
2022-11-15T16:45:49.670Z,88.2
2022-11-15T16:50:49.906Z,88.8
2022-11-15T16:55:49.962Z,89.1
2022-11-15T17:00:49.892Z,89.3
2022-11-15T17:05:49.657Z,89.9
2022-11-15T17:10:49.674Z,90
2022-11-15T17:15:49.656Z,90.1
2022-11-15T17:20:49.666Z,90.4
2022-11-15T17:25:49.667Z,90.7
2022-11-15T17:30:49.705Z,90.9
2022-11-15T17:35:49.657Z,91.2
2022-11-15T17:40:49.669Z,91.6
2022-11-15T17:45:49.655Z,91.9
2022-11-15T17:50:49.659Z,92.2
2022-11-15T17:55:49.630Z,92.5
2022-11-15T18:00:49.700Z,92.7
2022-11-15T18:05:49.626Z,92.9
2022-11-15T18:10:49.650Z,92.9
2022-11-15T18:15:49.622Z,92.7
2022-11-15T18:20:49.803Z,92.5
2022-11-15T18:25:49.621Z,92.6
2022-11-15T18:30:49.648Z,92.6
2022-11-15T18:35:49.620Z,92.6
2022-11-15T18:40:49.609Z,92.7
2022-11-15T18:45:49.627Z,93.1
2022-11-15T18:50:52.126Z,93.7
2022-11-15T18:55:49.626Z,94.1
2022-11-15T19:00:49.648Z,94.5
2022-11-15T19:05:49.638Z,95.1
2022-11-15T19:10:49.651Z,95.7
2022-11-15T19:15:49.627Z,96.3
2022-11-15T19:20:49.620Z,96.9
2022-11-15T19:25:49.640Z,97.7
2022-11-15T19:30:49.659Z,98.4
2022-11-15T19:35:49.633Z,98.9
2022-11-15T19:40:49.631Z,99.3
2022-11-15T19:45:49.619Z,99.9
2022-11-15T19:50:49.641Z,99.9
2022-11-15T19:55:49.682Z,99.9
2022-11-15T20:00:49.661Z,99.9
2022-11-15T20:05:49.646Z,99.9
2022-11-15T20:10:49.733Z,99.9
2022-11-15T20:15:49.626Z,99.9
2022-11-15T20:20:49.614Z,99.9
2022-11-15T20:25:49.615Z,99.9
2022-11-15T20:30:49.961Z,99.9
2022-11-15T20:35:49.625Z,99.9
2022-11-15T20:40:49.618Z,99.9
2022-11-15T20:45:49.615Z,99.9
2022-11-15T20:50:49.630Z,99.9
2022-11-15T20:55:49.623Z,99.9
2022-11-15T21:00:49.701Z,99.9
2022-11-15T21:05:49.629Z,99.9
2022-11-15T21:10:49.773Z,99.9
2022-11-15T21:15:49.627Z,99.9
2022-11-15T21:20:49.622Z,99.9
2022-11-15T21:25:49.624Z,99.9
2022-11-15T21:30:49.900Z,99.9
2022-11-15T21:35:49.613Z,99.9
2022-11-15T21:40:49.625Z,99.9
2022-11-15T21:45:49.694Z,99.9
2022-11-15T21:50:49.642Z,99.9
2022-11-15T21:55:49.616Z,99.9
2022-11-15T22:00:49.656Z,99.9
2022-11-15T22:05:49.705Z,99.9
2022-11-15T22:10:49.645Z,99.9
2022-11-15T22:15:49.607Z,99.9
2022-11-15T22:20:49.611Z,99.9
2022-11-15T22:25:49.606Z,99.9
2022-11-15T22:30:49.644Z,99.9
2022-11-15T22:35:49.614Z,99.9
2022-11-15T22:40:49.613Z,99.9
2022-11-15T22:45:49.601Z,99.9
2022-11-15T22:50:49.688Z,99.9
2022-11-15T22:55:49.591Z,99.9
2022-11-15T23:00:49.600Z,99.9
2022-11-15T23:05:49.612Z,99.9
2022-11-15T23:10:49.630Z,99.9
2022-11-15T23:15:49.614Z,99.9
2022-11-15T23:20:49.595Z,99.9
2022-11-15T23:25:49.688Z,99.9
2022-11-15T23:30:49.625Z,99.9
2022-11-15T23:35:49.612Z,99.9
2022-11-15T23:40:49.598Z,99.9
2022-11-15T23:45:49.736Z,99.9
2022-11-15T23:50:49.611Z,99.9
2022-11-15T23:55:49.593Z,99.9
